Tropical Cyclones
[Index]
Main Index Home Page Stock Weather Photos Extreme Storms Discussion Storm News and Storm Chasing Reports Tropical Cyclones / Hurricanes / Typhoons Weather Data and Links Wild Fires / Bushfires Weather Observation Techniques Weather Picture Catalogue Tornado Pictures and Reports Stock Video Footage and DVDs for sale
Season 2014-2015 Tropical Cyclone QUANG Track Map
Season 2014-2015 Summaries (Operational Data): [AU] [SIO] [SPAC] [SH]
<<- Previous TC | 2014-2015 Season | Next TC ->>

click for intensity scale information  Lat/long Grid: Show Hide

 Date Labels: Show Hide

Operational Tropical Cyclone Data : JTWC Advisories

Name: QUANG
Number: 1524

26 Apr 2015 12:00 UTC to 01 May 2015 18:00 UTC

    date/time    lat    long     hPa   cat  kts
2015-04-26 12   10.6   114.3    1010         15          
2015-04-26 18   11.0   114.0    1010         15          
2015-04-27 00   11.4   113.7    1010         15          
2015-04-27 06   12.4   113.6    1009         15          
2015-04-27 12   12.8   113.4    1007         20          
2015-04-27 18   13.1   113.1    1004         25          
2015-04-28 00   13.5   112.5    1004         25          
2015-04-28 06   13.8   111.6    1005         25          
2015-04-28 12   14.2   110.6    1001         30          
2015-04-28 18   14.7   110.0    1000         30          
2015-04-29 00   15.2   109.7     993    1    40          
2015-04-29 06   15.4   109.3     985    2    50          
2015-04-29 12   15.8   109.1     974    3    65          
2015-04-29 18   16.3   109.1     956    4    90          
2015-04-30 00   17.1   109.2     937    5   115          
2015-04-30 06   17.9   109.8     937    5   115          
2015-04-30 12   19.0   110.6     944    4   105          
2015-04-30 18   20.0   111.6     944    4   105          
2015-05-01 00   20.9   112.7     959    3    85          
2015-05-01 06   21.7   114.0     970    3    70          
2015-05-01 12   22.4   115.1     989    1    45          
2015-05-01 18   23.3   116.4    1004         25          
Winds are 10-min average.

Tropical cyclone tracks developed by Michael Bath using operational warnings and advisories and Google Maps.


[Australian Severe Weather index] [Copyright Notice] [Email Contacts] [Search This Site] [Privacy Policy]
Document: tropical_cyclone_quang.htm Updated: 2 May 2017